Time;durP1;ratioP1;P1;durP2;ratioP2;P2;SDS_P1;SDS_P2;PMS_P1;PMS_P2;Temp;Humidity;BMP_temperature;BMP_pressure;BME280_temperature;BME280_humidity;BME280_pressure;Samples;Min_cycle;Max_cycle;Signal;HPM_P1;HPM_P2
2024/03/23 00:02:08;;;;;;;0.57;0.57;;;15.50;99.90;;;;;;10431532;28;20063;-51
2024/03/23 00:07:14;;;;;;;2.55;2.35;;;14.80;99.90;;;;;;10429591;28;20060;-49
2024/03/23 00:12:20;;;;;;;3.88;1.25;;;13.20;99.90;;;;;;10431704;28;20171;-52
2024/03/23 00:17:26;;;;;;;0.60;0.60;;;13.20;99.90;;;;;;10425704;28;20053;-52
2024/03/23 00:22:32;;;;;;;0.28;0.28;;;13.20;99.90;;;;;;10426457;28;20057;-51
2024/03/23 00:27:37;;;;;;;0.10;0.10;;;13.40;99.90;;;;;;10428951;28;20057;-54
2024/03/23 00:32:43;;;;;;;2.35;1.70;;;14.40;99.90;;;;;;10424541;28;20056;-53
2024/03/23 00:37:49;;;;;;;1.40;1.30;;;13.50;99.90;;;;;;10430310;28;20602;-52
2024/03/23 00:42:55;;;;;;;0.10;0.10;;;12.90;99.90;;;;;;10427307;28;20057;-53
2024/03/23 00:48:02;;;;;;;0.47;0.47;;;13.40;99.90;;;;;;10427348;28;20064;-53
2024/03/23 00:53:07;;;;;;;0.25;0.25;;;12.60;99.90;;;;;;10422151;28;20048;-51
2024/03/23 00:58:10;;;;;;;9.95;1.85;;;13.00;99.90;;;;;;10421934;28;20863;-53
2024/03/23 01:03:12;;;;;;;0.20;0.20;;;12.40;99.90;;;;;;10421297;28;20136;-54
2024/03/23 01:08:15;;;;;;;0.63;0.53;;;12.00;99.90;;;;;;10422100;28;20091;-53
2024/03/23 01:13:20;;;;;;;1.15;1.05;;;12.70;99.90;;;;;;10428439;28;20076;-53
2024/03/23 01:18:23;;;;;;;0.10;0.10;;;13.10;99.90;;;;;;10427512;28;20476;-53
2024/03/23 01:23:27;;;;;;;0.20;0.20;;;12.80;99.90;;;;;;10420740;28;20125;-52
2024/03/23 01:28:29;;;;;;;0.50;0.50;;;12.40;99.90;;;;;;10429023;28;20087;-50
2024/03/23 01:33:31;;;;;;;0.10;0.10;;;11.20;99.90;;;;;;10425263;28;20056;-55
2024/03/23 01:38:36;;;;;;;0.10;0.10;;;11.50;99.90;;;;;;10417652;28;20053;-51
2024/03/23 01:43:38;;;;;;;3.10;2.30;;;11.40;99.90;;;;;;10421037;28;20068;-52
2024/03/23 01:48:39;;;;;;;0.10;0.10;;;11.30;99.90;;;;;;10426252;28;20045;-51
2024/03/23 01:53:43;;;;;;;1.02;0.98;;;11.00;99.90;;;;;;10425686;28;21415;-54
2024/03/23 01:58:46;;;;;;;0.20;0.20;;;10.60;99.90;;;;;;10427639;28;20087;-51
2024/03/23 02:03:48;;;;;;;0.10;0.10;;;11.70;99.90;;;;;;10440384;28;20063;-49
2024/03/23 02:08:52;;;;;;;0.22;0.17;;;11.10;99.90;;;;;;10441758;28;20160;-52
2024/03/23 02:13:53;;;;;;;0.10;0.10;;;11.40;99.90;;;;;;10437639;28;20144;-53
2024/03/23 02:18:56;;;;;;;0.40;0.40;;;11.10;99.90;;;;;;10437301;28;20071;-51
2024/03/23 02:23:59;;;;;;;0.10;0.10;;;10.30;99.90;;;;;;10441150;28;20061;-50
2024/03/23 02:29:01;;;;;;;0.10;0.10;;;10.40;99.90;;;;;;10437681;28;20699;-50
2024/03/23 02:34:03;;;;;;;0.10;0.10;;;10.00;99.90;;;;;;10438794;28;20059;-49
2024/03/23 02:39:07;;;;;;;0.10;0.10;;;10.70;99.90;;;;;;10437260;28;20053;-51
2024/03/23 02:44:11;;;;;;;0.25;0.25;;;10.40;99.90;;;;;;10440821;28;20760;-51
2024/03/23 02:49:15;;;;;;;0.13;0.13;;;10.40;99.90;;;;;;10435455;28;20198;-52
2024/03/23 02:54:18;;;;;;;0.17;0.17;;;11.40;99.90;;;;;;10433713;28;20150;-53
2024/03/23 02:59:20;;;;;;;10.55;0.68;;;10.20;99.90;;;;;;10431258;28;20045;-53
2024/03/23 03:04:22;;;;;;;0.10;0.10;;;9.70;99.90;;;;;;10431651;28;20131;-53
2024/03/23 03:09:25;;;;;;;0.10;0.10;;;10.30;99.90;;;;;;10436192;28;20106;-49
2024/03/23 03:14:28;;;;;;;0.10;0.10;;;9.50;99.90;;;;;;10428022;28;20903;-50
2024/03/23 03:19:30;;;;;;;0.47;0.43;;;10.10;99.90;;;;;;10443779;28;20056;-53
2024/03/23 03:24:33;;;;;;;1.05;1.05;;;9.20;99.90;;;;;;10448199;28;20052;-51
2024/03/23 03:29:35;;;;;;;0.10;0.10;;;8.70;99.90;;;;;;10437097;28;20056;-51
2024/03/23 03:34:37;;;;;;;0.40;0.40;;;9.40;99.90;;;;;;10441835;28;20521;-50
2024/03/23 03:39:40;;;;;;;0.10;0.10;;;10.30;99.90;;;;;;10438208;28;20052;-50
2024/03/23 03:44:43;;;;;;;0.20;0.20;;;10.30;99.90;;;;;;10434156;28;20048;-54
2024/03/23 03:49:45;;;;;;;1.40;1.13;;;9.70;99.90;;;;;;10434240;28;20719;-50
2024/03/23 03:54:48;;;;;;;0.10;0.10;;;10.70;99.90;;;;;;10432177;28;20777;-51
2024/03/23 03:59:50;;;;;;;0.10;0.10;;;9.80;99.90;;;;;;10429499;28;20516;-54
2024/03/23 04:04:52;;;;;;;0.15;0.15;;;9.80;99.90;;;;;;10433096;28;20094;-53
2024/03/23 04:09:55;;;;;;;0.10;0.10;;;9.10;99.90;;;;;;10431437;28;20060;-49
2024/03/23 04:14:57;;;;;;;0.28;0.28;;;10.10;99.90;;;;;;10428909;28;20079;-51
2024/03/23 04:20:00;;;;;;;0.10;0.10;;;10.40;99.90;;;;;;10436132;28;20519;-52
2024/03/23 04:25:06;;;;;;;8.07;1.83;;;9.60;99.90;;;;;;10430954;28;20068;-50
2024/03/23 04:30:11;;;;;;;0.95;0.95;;;9.50;99.90;;;;;;10436292;28;20122;-54
2024/03/23 04:35:13;;;;;;;0.75;0.73;;;9.50;99.90;;;;;;10436373;28;20049;-53
2024/03/23 04:40:16;;;;;;;0.10;0.10;;;9.50;99.90;;;;;;10437726;28;20045;-51
2024/03/23 04:45:18;;;;;;;0.20;0.20;;;8.90;99.90;;;;;;10430329;28;20052;-50
2024/03/23 04:50:20;;;;;;;0.17;0.17;;;8.50;99.90;;;;;;10433514;28;20063;-54
2024/03/23 04:55:23;;;;;;;0.20;0.20;;;8.80;99.90;;;;;;10428992;28;20048;-52
2024/03/23 05:00:27;;;;;;;0.10;0.10;;;8.80;99.90;;;;;;10426271;28;20048;-55
2024/03/23 05:05:29;;;;;;;0.10;0.10;;;9.00;99.90;;;;;;10424365;28;20908;-49
2024/03/23 05:10:33;;;;;;;0.20;0.20;;;8.70;99.90;;;;;;10433817;28;22206;-52
2024/03/23 05:15:36;;;;;;;0.20;0.20;;;8.40;99.90;;;;;;10428714;28;20267;-52
2024/03/23 05:20:38;;;;;;;18.63;4.00;;;7.90;99.90;;;;;;10436053;28;20148;-51
2024/03/23 05:25:41;;;;;;;15.98;2.75;;;8.30;99.90;;;;;;10433074;28;20432;-50
2024/03/23 05:30:43;;;;;;;10.60;1.83;;;8.60;99.90;;;;;;10431728;28;20048;-50
2024/03/23 05:35:45;;;;;;;7.35;2.08;;;8.40;99.90;;;;;;10430298;28;20049;-51
2024/03/23 05:40:55;;;;;;;13.75;2.55;;;8.50;99.90;;;;;;10432405;28;20389;-53
2024/03/23 05:45:58;;;;;;;15.90;2.95;;;8.80;99.90;;;;;;10431001;28;20055;-52
2024/03/23 05:51:01;;;;;;;17.90;2.65;;;8.00;99.90;;;;;;10424944;28;20060;-50
2024/03/23 05:56:05;;;;;;;14.03;2.00;;;8.50;99.90;;;;;;10426190;28;20099;-49
2024/03/23 06:01:10;;;;;;;11.48;2.08;;;7.90;99.90;;;;;;10433498;28;20055;-50
2024/03/23 06:06:12;;;;;;;10.02;1.63;;;7.90;99.90;;;;;;10430569;28;20048;-54
2024/03/23 06:11:16;;;;;;;10.00;1.27;;;8.80;99.90;;;;;;10439553;28;20084;-50
2024/03/23 06:16:23;;;;;;;17.42;2.00;;;9.50;99.90;;;;;;10429935;28;20044;-52
2024/03/23 06:21:25;;;;;;;10.30;2.38;;;8.80;99.90;;;;;;10434932;28;20141;-50
2024/03/23 06:26:28;;;;;;;21.55;2.20;;;8.70;99.90;;;;;;10435575;28;20056;-54
2024/03/23 06:31:30;;;;;;;12.98;2.75;;;8.40;99.90;;;;;;10424808;28;20757;-50
2024/03/23 06:36:32;;;;;;;16.02;2.28;;;8.40;99.90;;;;;;10423336;28;20049;-53
2024/03/23 06:41:36;;;;;;;7.63;2.47;;;9.70;99.90;;;;;;10429330;28;20056;-51
2024/03/23 06:46:38;;;;;;;14.15;2.10;;;9.40;99.90;;;;;;10429620;28;20448;-53
2024/03/23 06:51:40;;;;;;;14.73;3.03;;;9.80;99.90;;;;;;10430093;28;20075;-52
2024/03/23 06:56:44;;;;;;;7.72;2.25;;;8.90;99.90;;;;;;10423321;28;20597;-53
2024/03/23 07:01:46;;;;;;;11.75;2.65;;;8.70;99.90;;;;;;10423362;28;20428;-52
2024/03/23 07:06:48;;;;;;;9.63;1.70;;;9.60;99.90;;;;;;10423853;28;20048;-51
2024/03/23 07:11:52;;;;;;;10.30;1.92;;;9.20;99.90;;;;;;10428869;28;22741;-54
2024/03/23 07:16:54;;;;;;;17.55;2.60;;;9.30;99.90;;;;;;10424910;28;20060;-53
2024/03/23 07:21:56;;;;;;;13.48;2.80;;;8.40;99.90;;;;;;10422522;28;20110;-53
2024/03/23 07:26:59;;;;;;;19.92;3.17;;;8.40;99.90;;;;;;10420862;28;20083;-54
2024/03/23 07:32:01;;;;;;;;;;;8.60;99.90;;;;;;10428349;28;20037;-50
2024/03/23 07:37:03;;;;;;;7.05;1.38;;;8.60;99.90;;;;;;10416847;28;19965;-49
2024/03/23 07:42:07;;;;;;;17.33;2.90;;;8.30;99.90;;;;;;10426063;28;20444;-53
2024/03/23 07:47:09;;;;;;;18.30;2.65;;;8.10;99.90;;;;;;10423024;28;20049;-51
2024/03/23 07:52:11;;;;;;;13.57;2.27;;;8.90;99.90;;;;;;10425929;28;20093;-53
2024/03/23 07:57:15;;;;;;;30.35;6.18;;;9.10;99.90;;;;;;10427480;28;20048;-51
2024/03/23 08:02:17;;;;;;;19.63;3.03;;;8.70;99.90;;;;;;10425462;28;20117;-52
2024/03/23 08:07:19;;;;;;;11.00;2.60;;;9.10;99.90;;;;;;10426591;28;20303;-53
2024/03/23 08:12:22;;;;;;;15.18;3.00;;;8.90;99.90;;;;;;10423617;28;20563;-52
2024/03/23 08:17:24;;;;;;;19.60;2.97;;;8.70;99.90;;;;;;10421649;28;20738;-52
2024/03/23 08:22:26;;;;;;;11.30;2.78;;;9.20;99.90;;;;;;10421963;28;20048;-52
2024/03/23 08:27:29;;;;;;;23.75;2.80;;;8.60;99.90;;;;;;10423784;28;20604;-51
2024/03/23 08:32:31;;;;;;;21.10;2.08;;;8.60;99.90;;;;;;10423993;28;20055;-56
2024/03/23 08:37:33;;;;;;;21.27;2.72;;;9.00;99.90;;;;;;10425605;28;20053;-53
2024/03/23 08:42:37;;;;;;;19.98;2.58;;;8.70;99.90;;;;;;10417678;28;20163;-53
2024/03/23 08:47:39;;;;;;;23.30;3.55;;;8.80;99.90;;;;;;10426812;28;20063;-50
2024/03/23 08:52:41;;;;;;;16.98;3.40;;;8.30;99.90;;;;;;10428271;28;20057;-51
2024/03/23 08:57:44;;;;;;;17.48;3.72;;;8.90;99.90;;;;;;10422893;28;20544;-53
2024/03/23 09:02:49;;;;;;;13.00;2.40;;;9.10;99.90;;;;;;10428780;28;20381;-54
2024/03/23 09:07:50;;;;;;;18.10;2.92;;;8.70;99.90;;;;;;10420305;28;20214;-51
2024/03/23 09:12:54;;;;;;;17.60;2.55;;;8.80;99.90;;;;;;10425087;28;20064;-51
2024/03/23 09:17:56;;;;;;;17.75;2.63;;;8.60;99.90;;;;;;10420333;28;20052;-55
2024/03/23 09:22:58;;;;;;;18.80;3.03;;;8.50;99.90;;;;;;10427179;28;20052;-54
2024/03/23 09:28:01;;;;;;;21.95;2.38;;;8.90;99.90;;;;;;10421001;28;20037;-51
2024/03/23 09:33:04;;;;;;;15.30;2.78;;;9.00;99.90;;;;;;10422833;28;20052;-52
2024/03/23 09:38:07;;;;;;;16.15;2.13;;;9.30;99.90;;;;;;10426299;28;20084;-53
2024/03/23 09:43:11;;;;;;;14.35;2.40;;;8.80;99.90;;;;;;10424894;28;20079;-52
2024/03/23 09:48:14;;;;;;;10.98;1.77;;;9.00;99.90;;;;;;10417157;28;20111;-52
2024/03/23 09:53:16;;;;;;;17.58;2.90;;;8.70;99.90;;;;;;10429422;28;20068;-54
2024/03/23 09:58:20;;;;;;;21.17;3.03;;;9.00;99.90;;;;;;10438824;28;20846;-53
2024/03/23 10:03:22;;;;;;;12.85;2.38;;;8.80;99.90;;;;;;10426607;28;20133;-57
2024/03/23 10:08:25;;;;;;;21.55;2.65;;;9.20;99.90;;;;;;10421674;28;20056;-50
2024/03/23 10:13:30;;;;;;;20.58;2.50;;;9.00;99.90;;;;;;10424956;28;22816;-54
2024/03/23 10:18:32;;;;;;;12.80;2.65;;;8.90;99.90;;;;;;10418872;28;20083;-52
2024/03/23 10:23:34;;;;;;;29.67;2.65;;;8.70;99.90;;;;;;10421599;28;20080;-55
2024/03/23 10:28:38;;;;;;;16.08;3.08;;;9.10;99.90;;;;;;10430504;28;20049;-54
2024/03/23 10:33:46;;;;;;;24.52;3.72;;;8.80;99.90;;;;;;10436143;28;20136;-55
2024/03/23 10:38:48;;;;;;;28.55;5.32;;;9.10;99.90;;;;;;10428878;28;20085;-52
2024/03/23 10:43:52;;;;;;;14.82;2.70;;;8.90;99.90;;;;;;10429722;28;20052;-50
2024/03/23 10:48:54;;;;;;;17.02;2.22;;;9.50;99.90;;;;;;10432388;28;20060;-52
2024/03/23 10:53:58;;;;;;;16.40;1.50;;;9.80;99.90;;;;;;10425393;28;20068;-52
2024/03/23 10:59:04;;;;;;;15.57;3.15;;;9.80;99.90;;;;;;10429724;28;21294;-52
2024/03/23 11:04:06;;;;;;;14.32;2.08;;;9.80;99.90;;;;;;10433642;28;20938;-57
2024/03/23 11:09:44;;;;;;;8.30;2.05;;;9.30;99.90;;;;;;10428253;28;20049;-54
2024/03/23 11:14:49;;;;;;;19.52;3.13;;;9.60;99.90;;;;;;10425702;28;20057;-55
2024/03/23 11:19:56;;;;;;;14.57;2.20;;;9.90;99.90;;;;;;10422281;28;20060;-55
2024/03/23 11:24:58;;;;;;;12.90;2.33;;;9.70;99.90;;;;;;10415739;28;20494;-54
2024/03/23 11:30:16;;;;;;;12.43;2.63;;;10.10;99.90;;;;;;10417935;28;20942;-54
2024/03/23 11:35:28;;;;;;;26.85;2.80;;;9.80;99.90;;;;;;10420291;28;20045;-52
2024/03/23 11:40:31;;;;;;;9.25;2.38;;;10.00;99.90;;;;;;10424112;28;20660;-52
2024/03/23 11:45:39;;;;;;;21.67;2.47;;;9.50;99.90;;;;;;10421866;28;20045;-55
2024/03/23 11:50:42;;;;;;;12.43;2.45;;;9.20;99.90;;;;;;10419821;28;20091;-54
2024/03/23 11:55:47;;;;;;;;;;;9.90;99.90;;;;;;10426445;28;20052;-55
2024/03/23 12:00:57;;;;;;;11.82;1.73;;;9.70;99.90;;;;;;10415249;28;19928;-55
2024/03/23 12:06:01;;;;;;;19.17;2.80;;;9.80;99.90;;;;;;10418979;28;20175;-54
2024/03/23 12:11:07;;;;;;;11.10;2.58;;;9.70;99.90;;;;;;10422520;28;20061;-53
2024/03/23 12:16:15;;;;;;;19.27;2.50;;;9.70;99.90;;;;;;10428682;28;21002;-55
2024/03/23 12:21:18;;;;;;;12.20;2.45;;;9.90;99.90;;;;;;10419956;28;20045;-53
2024/03/23 12:26:20;;;;;;;18.92;3.10;;;10.10;99.90;;;;;;10424812;28;20230;-55
2024/03/23 12:31:24;;;;;;;8.57;2.05;;;9.90;99.90;;;;;;10428977;28;20052;-56
2024/03/23 12:36:26;;;;;;;10.88;2.15;;;10.10;99.90;;;;;;10419737;28;20041;-52
2024/03/23 12:41:28;;;;;;;19.65;3.40;;;10.40;99.90;;;;;;10428173;28;20189;-55
2024/03/23 12:46:32;;;;;;;18.88;3.28;;;9.60;99.90;;;;;;10429391;28;20072;-55
2024/03/23 12:51:34;;;;;;;19.00;3.10;;;9.50;99.90;;;;;;10426261;28;20870;-51
2024/03/23 12:56:36;;;;;;;11.10;2.27;;;10.00;99.90;;;;;;10426131;28;20061;-58
2024/03/23 13:01:40;;;;;;;19.13;3.63;;;10.00;99.90;;;;;;10423279;28;20056;-55
2024/03/23 13:06:42;;;;;;;22.15;4.72;;;10.10;99.90;;;;;;10423848;28;20052;-56
2024/03/23 13:11:44;;;;;;;21.13;3.53;;;11.00;99.90;;;;;;10429240;28;20916;-53
2024/03/23 13:16:47;;;;;;;17.45;4.03;;;11.00;99.90;;;;;;10422732;28;20061;-54
2024/03/23 13:21:51;;;;;;;15.05;3.88;;;9.60;99.90;;;;;;10427350;28;20052;-54
2024/03/23 13:26:53;;;;;;;10.38;2.25;;;9.20;99.90;;;;;;10424795;28;20052;-54
2024/03/23 13:31:57;;;;;;;8.18;1.88;;;8.90;99.90;;;;;;10422263;28;20138;-55
2024/03/23 13:36:59;;;;;;;10.82;1.83;;;9.10;99.90;;;;;;10426723;28;20048;-55
2024/03/23 13:42:01;;;;;;;13.05;2.78;;;8.90;99.90;;;;;;10427995;28;20075;-56
2024/03/23 13:47:05;;;;;;;4.85;1.58;;;10.10;99.90;;;;;;10431856;28;22516;-56
2024/03/23 13:52:08;;;;;;;7.80;1.42;;;11.30;99.90;;;;;;10428201;28;20864;-55
2024/03/23 13:57:10;;;;;;;8.57;1.60;;;11.30;99.90;;;;;;10428698;28;20108;-57
2024/03/23 14:02:14;;;;;;;13.85;2.47;;;11.20;99.90;;;;;;10432402;28;20130;-56
2024/03/23 14:07:18;;;;;;;18.38;1.75;;;10.80;99.90;;;;;;10430796;28;20053;-55
2024/03/23 14:12:20;;;;;;;9.57;2.35;;;10.40;99.90;;;;;;10428194;28;20673;-54
2024/03/23 14:17:23;;;;;;;13.38;2.55;;;10.50;99.90;;;;;;10435124;28;20048;-56
2024/03/23 14:22:26;;;;;;;8.73;1.52;;;10.70;99.90;;;;;;10429988;28;20142;-55
2024/03/23 14:27:28;;;;;;;;;;;11.80;99.90;;;;;;10432215;28;20139;-56
2024/03/23 14:32:34;;;;;;;8.88;0.73;;;12.20;99.90;;;;;;10427692;28;20435;-55
2024/03/23 14:37:37;;;;;;;7.28;1.15;;;12.50;99.90;;;;;;10428075;28;20056;-58
2024/03/23 14:42:38;;;;;;;;;;;12.50;99.90;;;;;;10434742;28;20056;-54
2024/03/23 14:47:42;;;;;;;12.82;1.48;;;13.30;99.90;;;;;;10423567;28;19928;-59
2024/03/23 14:52:46;;;;;;;13.20;1.52;;;14.50;99.90;;;;;;10440033;28;20047;-61
2024/03/23 14:57:50;;;;;;;7.47;1.10;;;14.50;99.90;;;;;;10430860;28;20051;-52
2024/03/23 15:02:54;;;;;;;9.43;1.50;;;14.40;99.90;;;;;;10432528;28;20567;-52
2024/03/23 15:07:56;;;;;;;19.00;2.88;;;14.20;99.90;;;;;;10427994;28;20041;-53
2024/03/23 15:12:58;;;;;;;14.70;1.77;;;12.50;99.90;;;;;;10421583;28;20072;-52
2024/03/23 15:18:01;;;;;;;7.50;1.00;;;12.80;99.90;;;;;;10427916;28;21115;-52
2024/03/23 15:23:03;;;;;;;8.68;1.30;;;11.90;99.90;;;;;;10427511;28;20056;-53
2024/03/23 15:28:06;;;;;;;8.98;1.60;;;12.20;99.90;;;;;;10428713;28;20807;-50
2024/03/23 15:33:10;;;;;;;8.32;1.15;;;13.50;99.90;;;;;;10425310;28;20603;-51
2024/03/23 15:38:12;;;;;;;6.25;0.80;;;13.70;99.90;;;;;;10420433;28;20044;-53
2024/03/23 15:43:14;;;;;;;15.57;2.97;;;14.40;99.90;;;;;;10425334;28;20049;-53
2024/03/23 15:48:18;;;;;;;7.67;1.00;;;14.40;99.80;;;;;;10426274;28;20606;-51
2024/03/23 15:53:20;;;;;;;6.20;1.10;;;13.50;99.90;;;;;;10429957;28;20053;-52
2024/03/23 15:58:22;;;;;;;5.47;1.43;;;13.90;99.90;;;;;;10424514;28;20060;-49
2024/03/23 16:03:26;;;;;;;8.63;1.48;;;13.40;99.90;;;;;;10430348;28;20200;-54
2024/03/23 16:08:28;;;;;;;19.35;2.45;;;12.70;99.90;;;;;;10426606;28;20159;-52
2024/03/23 16:13:31;;;;;;;11.73;1.93;;;13.30;99.90;;;;;;10432644;28;20053;-55
2024/03/23 16:18:36;;;;;;;16.85;2.40;;;11.80;99.90;;;;;;10426022;28;20123;-56
2024/03/23 16:23:40;;;;;;;14.98;1.52;;;11.80;99.90;;;;;;10427473;28;20105;-53
2024/03/23 16:28:42;;;;;;;10.27;1.15;;;13.50;99.90;;;;;;10420405;28;20057;-54
2024/03/23 16:33:46;;;;;;;2.55;0.40;;;13.70;99.90;;;;;;10421958;28;20060;-52
2024/03/23 16:38:49;;;;;;;6.93;1.73;;;15.00;99.90;;;;;;10432261;28;20163;-53
2024/03/23 16:43:52;;;;;;;6.68;1.17;;;14.40;99.90;;;;;;10422172;28;20057;-53
2024/03/23 16:48:56;;;;;;;12.90;2.17;;;14.10;99.90;;;;;;10424588;28;20115;-50
2024/03/23 16:53:59;;;;;;;13.93;1.90;;;13.30;99.90;;;;;;10417046;28;20061;-54
2024/03/23 16:59:01;;;;;;;7.50;1.60;;;13.30;99.90;;;;;;10417481;28;20110;-51
2024/03/23 17:04:05;;;;;;;6.20;1.20;;;13.60;99.90;;;;;;10414764;28;20061;-55
2024/03/23 17:09:07;;;;;;;3.75;0.70;;;13.40;99.90;;;;;;10422708;28;20305;-52
2024/03/23 17:14:09;;;;;;;9.53;1.33;;;13.20;99.90;;;;;;10423170;28;20671;-51
2024/03/23 17:19:12;;;;;;;6.10;1.37;;;13.00;99.90;;;;;;10420951;28;20617;-53
2024/03/23 17:24:14;;;;;;;6.30;1.40;;;13.00;99.90;;;;;;10419964;28;20053;-54
2024/03/23 17:29:16;;;;;;;8.07;1.38;;;12.70;99.90;;;;;;10419417;28;20065;-53
2024/03/23 17:34:20;;;;;;;6.75;1.05;;;12.70;99.90;;;;;;10415314;28;20056;-51
2024/03/23 17:39:22;;;;;;;4.20;0.90;;;11.60;99.90;;;;;;10420612;28;20052;-54
2024/03/23 17:44:24;;;;;;;9.52;1.08;;;11.30;99.90;;;;;;10413624;28;20060;-51
2024/03/23 17:49:27;;;;;;;10.77;1.40;;;11.60;99.90;;;;;;10420950;28;20060;-55
2024/03/23 17:54:30;;;;;;;11.85;1.65;;;10.70;99.90;;;;;;10410156;28;21857;-54
2024/03/23 17:59:32;;;;;;;10.63;1.58;;;11.20;99.90;;;;;;10413322;28;20140;-54
2024/03/23 18:04:35;;;;;;;11.87;1.70;;;10.40;99.90;;;;;;10415167;28;20590;-53
2024/03/23 18:09:38;;;;;;;13.02;2.17;;;10.10;99.90;;;;;;10416571;28;20076;-53
2024/03/23 18:14:39;;;;;;;11.10;1.67;;;9.70;99.90;;;;;;10413651;28;20162;-52
2024/03/23 18:19:43;;;;;;;10.18;1.35;;;9.80;99.90;;;;;;10422996;28;20071;-54
2024/03/23 18:24:45;;;;;;;14.80;1.77;;;9.80;99.90;;;;;;10421149;28;20052;-54
2024/03/23 18:29:47;;;;;;;10.60;1.52;;;10.00;99.90;;;;;;10419255;28;20049;-55
2024/03/23 18:34:51;;;;;;;5.60;1.80;;;9.40;99.90;;;;;;10415092;28;20094;-54
2024/03/23 18:39:53;;;;;;;6.35;1.92;;;9.20;99.90;;;;;;10421248;28;20049;-52
2024/03/23 18:44:55;;;;;;;6.22;1.00;;;9.00;99.90;;;;;;10422541;28;20144;-54
2024/03/23 18:49:58;;;;;;;3.23;0.73;;;9.60;99.90;;;;;;10420023;28;21264;-51
2024/03/23 18:55:00;;;;;;;8.32;1.13;;;9.10;99.90;;;;;;10430831;28;20079;-54
2024/03/23 19:00:02;;;;;;;8.32;1.60;;;9.20;99.90;;;;;;10426764;28;20135;-51
2024/03/23 19:05:06;;;;;;;7.57;1.40;;;9.00;99.90;;;;;;10423291;28;20560;-51
2024/03/23 19:10:09;;;;;;;6.20;1.45;;;8.80;99.90;;;;;;10427715;28;20040;-56
2024/03/23 19:15:11;;;;;;;5.68;0.95;;;9.20;99.90;;;;;;10424916;28;20060;-53
2024/03/23 19:20:15;;;;;;;6.90;1.25;;;9.30;99.90;;;;;;10427039;28;20060;-51
2024/03/23 19:25:17;;;;;;;8.30;1.50;;;9.20;99.90;;;;;;10435750;28;20060;-55
2024/03/23 19:30:19;;;;;;;3.25;0.70;;;9.10;99.90;;;;;;10434253;28;20056;-51
2024/03/23 19:35:24;;;;;;;10.50;1.80;;;9.30;99.90;;;;;;10426156;28;20504;-54
2024/03/23 19:40:26;;;;;;;9.02;2.08;;;8.70;99.90;;;;;;10425812;28;20087;-53
2024/03/23 19:45:29;;;;;;;11.40;1.85;;;8.90;99.90;;;;;;10420065;28;20864;-53
2024/03/23 19:50:34;;;;;;;14.10;2.83;;;9.10;99.90;;;;;;10424346;28;20049;-53
2024/03/23 19:55:37;;;;;;;4.20;1.55;;;9.00;99.90;;;;;;10421371;28;20155;-52
2024/03/23 20:00:39;;;;;;;4.93;1.02;;;9.20;99.90;;;;;;10417553;28;20044;-55
2024/03/23 20:05:42;;;;;;;6.75;1.98;;;8.90;99.90;;;;;;10423448;28;20454;-54
2024/03/23 20:10:47;;;;;;;3.55;1.00;;;9.30;99.90;;;;;;10420784;28;20048;-51
2024/03/23 20:15:55;;;;;;;6.95;1.23;;;9.60;99.90;;;;;;10431081;28;20646;-52
2024/03/23 20:21:01;;;;;;;8.63;1.27;;;10.50;99.90;;;;;;10426495;28;20059;-54
2024/03/23 20:26:04;;;;;;;3.13;1.02;;;9.50;99.90;;;;;;10424017;28;20057;-55
2024/03/23 20:31:08;;;;;;;6.43;1.52;;;9.70;99.90;;;;;;10422815;28;20048;-52
2024/03/23 20:36:12;;;;;;;;;;;9.00;99.90;;;;;;10418981;28;20072;-53
2024/03/23 20:41:14;;;;;;;5.00;1.90;;;9.10;99.90;;;;;;10425058;28;20002;-51
2024/03/23 20:46:16;;;;;;;6.40;1.63;;;8.60;99.90;;;;;;10418360;28;20578;-53
2024/03/23 20:51:21;;;;;;;4.10;1.00;;;8.60;99.90;;;;;;10418709;28;20164;-50
2024/03/23 20:56:23;;;;;;;5.95;1.45;;;10.00;99.90;;;;;;10418823;28;20527;-52
2024/03/23 21:01:25;;;;;;;10.95;1.55;;;9.10;99.90;;;;;;10417701;28;20137;-55
2024/03/23 21:06:29;;;;;;;5.55;1.10;;;9.60;99.90;;;;;;10420481;28;20503;-50
2024/03/23 21:11:31;;;;;;;8.00;1.70;;;9.10;99.90;;;;;;10422182;28;21376;-52
2024/03/23 21:16:33;;;;;;;9.23;1.90;;;9.00;99.90;;;;;;10425738;28;20052;-54
2024/03/23 21:21:37;;;;;;;13.20;1.58;;;8.70;99.90;;;;;;10425447;28;20416;-51
2024/03/23 21:26:39;;;;;;;4.68;1.25;;;9.00;99.90;;;;;;10430502;28;20057;-53
2024/03/23 21:31:43;;;;;;;4.50;0.90;;;9.30;99.90;;;;;;10431951;28;20060;-50
2024/03/23 21:36:46;;;;;;;11.40;1.48;;;8.90;99.90;;;;;;10431593;28;20132;-52
2024/03/23 21:41:48;;;;;;;5.65;1.35;;;8.50;99.90;;;;;;10433405;28;20807;-50
2024/03/23 21:46:50;;;;;;;4.13;1.27;;;8.20;99.90;;;;;;10420118;28;20064;-53
2024/03/23 21:51:54;;;;;;;12.75;2.53;;;8.30;99.90;;;;;;10425031;28;20072;-53
2024/03/23 21:56:56;;;;;;;10.27;1.92;;;8.40;99.90;;;;;;10420869;28;20095;-53
2024/03/23 22:01:58;;;;;;;14.65;2.22;;;8.30;99.90;;;;;;10416899;28;20598;-51
2024/03/23 22:07:01;;;;;;;12.20;2.08;;;8.20;99.90;;;;;;10425779;28;20049;-54
2024/03/23 22:12:04;;;;;;;9.60;2.20;;;8.30;99.90;;;;;;10431262;28;20051;-51
2024/03/23 22:17:06;;;;;;;12.32;2.22;;;8.50;99.90;;;;;;10429828;28;20687;-54
2024/03/23 22:22:10;;;;;;;16.23;2.33;;;8.40;99.90;;;;;;10439328;28;20515;-55
2024/03/23 22:27:12;;;;;;;0.28;0.28;;;8.00;99.90;;;;;;10435729;28;20044;-54
2024/03/23 22:32:14;;;;;;;0.10;0.10;;;7.70;99.90;;;;;;10432027;28;20045;-53
2024/03/23 22:37:17;;;;;;;0.10;0.10;;;7.40;99.90;;;;;;10434119;28;20106;-54
2024/03/23 22:42:19;;;;;;;1.00;0.93;;;7.10;99.90;;;;;;10437125;28;20049;-53
2024/03/23 22:47:22;;;;;;;9.43;3.13;;;7.20;99.90;;;;;;10436236;28;20052;-52
2024/03/23 22:52:25;;;;;;;0.10;0.10;;;7.30;99.90;;;;;;10436560;28;20222;-52
2024/03/23 22:57:28;;;;;;;1.38;0.28;;;7.50;99.90;;;;;;10421967;28;20527;-51
2024/03/23 23:02:30;;;;;;;0.20;0.20;;;7.70;99.90;;;;;;10431760;28;20190;-52
2024/03/23 23:07:34;;;;;;;0.10;0.10;;;7.40;99.90;;;;;;10440754;28;20182;-53
2024/03/23 23:12:37;;;;;;;0.40;0.40;;;7.70;99.90;;;;;;10437013;28;20053;-53
2024/03/23 23:17:39;;;;;;;0.10;0.10;;;7.10;99.90;;;;;;10436325;28;20084;-49
2024/03/23 23:22:43;;;;;;;0.10;0.10;;;7.30;99.90;;;;;;10435484;28;20045;-54
2024/03/23 23:27:45;;;;;;;0.25;0.25;;;7.40;99.90;;;;;;10432243;28;20048;-53
2024/03/23 23:32:47;;;;;;;0.10;0.10;;;7.40;99.90;;;;;;10435683;28;20070;-51
2024/03/23 23:37:53;;;;;;;0.20;0.20;;;7.30;99.90;;;;;;10433970;28;20061;-52
2024/03/23 23:42:55;;;;;;;0.13;0.13;;;7.40;99.90;;;;;;10442483;28;20051;-51
2024/03/23 23:47:57;;;;;;;0.10;0.10;;;7.80;99.90;;;;;;10430678;28;20096;-49
2024/03/23 23:53:03;;;;;;;0.40;0.40;;;7.60;99.90;;;;;;10435604;28;20056;-54
2024/03/23 23:58:05;;;;;;;0.10;0.10;;;8.00;99.90;;;;;;10428714;28;20064;-52
